Time;durP1;ratioP1;P1;durP2;ratioP2;P2;SDS_P1;SDS_P2;PMS_P1;PMS_P2;Temp;Humidity;BMP_temperature;BMP_pressure;BME280_temperature;BME280_humidity;BME280_pressure;Samples;Min_cycle;Max_cycle;Signal;HPM_P1;HPM_P2
2022/01/02 00:02:17;;;;;;;;;;;6.80;87.50;;;;;;5025699;28;87199;-47
2022/01/02 00:04:46;;;;;;;;;;;6.80;87.50;;;;;;5026447;28;86357;-46
2022/01/02 00:07:14;;;;;;;;;;;6.80;87.50;;;;;;5028437;28;88377;-47
2022/01/02 00:09:42;;;;;;;;;;;6.80;87.50;;;;;;5025662;28;87107;-47
2022/01/02 00:12:10;;;;;;;;;;;6.80;87.40;;;;;;5025201;28;87897;-47
2022/01/02 00:14:37;;;;;;;;;;;6.80;87.40;;;;;;5025224;28;89589;-47
2022/01/02 00:17:04;;;;;;;;;;;6.80;87.40;;;;;;5025688;28;87003;-47
2022/01/02 00:19:31;;;;;;;;;;;6.80;87.40;;;;;;5025671;28;89009;-47
2022/01/02 00:22:01;;;;;;;;;;;6.80;87.40;;;;;;5025234;28;89383;-47
2022/01/02 00:24:27;;;;;;;;;;;6.80;87.40;;;;;;5025378;28;87093;-47
2022/01/02 00:26:54;;;;;;;;;;;6.80;87.40;;;;;;5025062;28;88579;-47
2022/01/02 00:29:19;;;;;;;;;;;6.80;87.40;;;;;;5028729;28;89041;-47
2022/01/02 00:31:45;;;;;;;;;;;6.80;87.90;;;;;;5025299;28;87315;-47
2022/01/02 00:34:11;;;;;;;;;;;6.80;87.40;;;;;;5023711;28;91403;-47
2022/01/02 00:36:37;;;;;;;;;;;6.80;87.40;;;;;;5024673;28;88195;-47
2022/01/02 00:39:03;;;;;;;;;;;6.80;87.40;;;;;;5025155;28;89979;-47
2022/01/02 00:41:41;;;;;;;;;;;6.80;87.30;;;;;;5024778;28;89603;-47
2022/01/02 00:44:25;;;;;;;;;;;6.90;87.40;;;;;;5025678;28;86858;-47
2022/01/02 00:46:52;;;;;;;;;;;6.80;87.30;;;;;;5025211;28;88568;-47
2022/01/02 00:49:24;;;;;;;;;;;6.80;87.30;;;;;;5024829;28;88279;-47
2022/01/02 00:51:53;;;;;;;;;;;6.80;87.30;;;;;;5027836;28;87121;-47
2022/01/02 00:54:22;;;;;;;;;;;6.80;87.30;;;;;;5024806;28;88686;-47
2022/01/02 00:56:51;;;;;;;;;;;6.80;87.40;;;;;;5024901;28;87097;-46
2022/01/02 00:59:27;;;;;;;;;;;6.80;87.40;;;;;;5025076;28;89189;-47
2022/01/02 01:01:57;;;;;;;;;;;6.80;87.90;;;;;;5024051;28;88998;-47
2022/01/02 01:04:25;;;;;;;;;;;6.80;87.30;;;;;;5025042;28;87161;-47
2022/01/02 01:06:52;;;;;;;;;;;6.80;87.30;;;;;;5024820;28;88673;-47
2022/01/02 01:09:17;;;;;;;;;;;6.80;87.40;;;;;;5023258;28;91280;-48
2022/01/02 01:11:43;;;;;;;;;;;6.80;87.30;;;;;;5027528;28;87184;-47
2022/01/02 01:14:09;;;;;;;;;;;6.80;87.40;;;;;;5024517;28;87701;-47
2022/01/02 01:16:34;;;;;;;;;;;6.80;87.30;;;;;;5024869;28;87191;-49
2022/01/02 01:19:02;;;;;;;;;;;6.80;87.30;;;;;;5024970;28;87559;-47
2022/01/02 01:21:28;;;;;;;;;;;6.80;87.30;;;;;;5024073;28;89595;-47
2022/01/02 01:23:54;;;;;;;;;;;6.80;87.30;;;;;;5024669;28;87208;-48
2022/01/02 01:26:19;;;;;;;;;;;6.80;87.20;;;;;;5023884;28;87909;-47
2022/01/02 01:28:45;;;;;;;;;;;6.80;87.30;;;;;;5024047;28;89426;-47
2022/01/02 01:31:11;;;;;;;;;;;6.80;87.30;;;;;;5024393;28;87194;-47
2022/01/02 01:33:36;;;;;;;;;;;6.80;87.30;;;;;;5026639;28;88730;-47
2022/01/02 01:36:02;;;;;;;;;;;6.80;87.30;;;;;;5024326;28;87193;-47
2022/01/02 01:38:27;;;;;;;;;;;6.80;87.30;;;;;;5024724;28;88427;-47
2022/01/02 01:40:56;;;;;;;;;;;6.80;87.30;;;;;;5024182;28;88252;-47
2022/01/02 01:43:31;;;;;;;;;;;6.80;87.30;;;;;;5024759;28;86312;-47
2022/01/02 01:45:56;;;;;;;;;;;6.80;87.30;;;;;;5024189;28;88364;-46
2022/01/02 01:48:22;;;;;;;;;;;6.80;87.30;;;;;;5023662;28;89119;-47
2022/01/02 01:50:48;;;;;;;;;;;6.80;87.30;;;;;;5023315;28;88151;-47
2022/01/02 01:53:13;;;;;;;;;;;6.80;87.30;;;;;;5023993;28;89850;-47
2022/01/02 01:55:39;;;;;;;;;;;6.80;87.30;;;;;;5026804;28;89772;-48
2022/01/02 01:58:05;;;;;;;;;;;6.80;87.20;;;;;;5024178;28;88728;-49
2022/01/02 02:00:33;;;;;;;;;;;6.80;87.20;;;;;;5023641;28;89470;-47
2022/01/02 02:02:59;;;;;;;;;;;6.80;87.30;;;;;;5023903;28;87224;-46
2022/01/02 02:05:24;;;;;;;;;;;6.80;87.30;;;;;;5022801;28;89183;-47
2022/01/02 02:07:50;;;;;;;;;;;6.80;87.20;;;;;;5022849;28;90537;-47
2022/01/02 02:10:18;;;;;;;;;;;6.80;87.20;;;;;;5023896;28;87219;-47
2022/01/02 02:12:47;;;;;;;;;;;6.80;87.20;;;;;;5022414;28;90492;-48
2022/01/02 02:15:13;;;;;;;;;;;6.80;87.80;;;;;;5022760;28;90629;-47
2022/01/02 02:17:39;;;;;;;;;;;6.80;87.20;;;;;;5026753;28;86946;-47
2022/01/02 02:20:14;;;;;;;;;;;6.80;87.20;;;;;;5023478;28;89461;-46
2022/01/02 02:22:41;;;;;;;;;;;6.80;87.30;;;;;;5023626;28;87096;-47
2022/01/02 02:25:07;;;;;;;;;;;6.80;87.20;;;;;;5023416;28;87919;-47
2022/01/02 02:27:33;;;;;;;;;;;6.80;87.30;;;;;;5023095;28;89534;-47
2022/01/02 02:29:58;;;;;;;;;;;6.80;87.30;;;;;;5023340;28;87019;-48
2022/01/02 02:32:24;;;;;;;;;;;6.80;87.30;;;;;;5023999;28;88154;-47
2022/01/02 02:34:50;;;;;;;;;;;6.80;87.30;;;;;;5023116;28;89769;-47
2022/01/02 02:37:15;;;;;;;;;;;6.80;87.40;;;;;;5022265;28;87137;-47
2022/01/02 02:39:41;;;;;;;;;;;6.80;87.40;;;;;;5025372;28;89258;-48
2022/01/02 02:42:14;;;;;;;;;;;6.80;87.40;;;;;;5023279;28;87148;-47
2022/01/02 02:44:40;;;;;;;;;;;6.80;87.40;;;;;;5023446;28;89044;-46
2022/01/02 02:49:50;;;;;;;;;;;6.80;87.40;;;;;;5023643;28;86973;-46
2022/01/02 02:52:40;;;;;;;;;;;6.80;87.40;;;;;;5023622;28;87040;-47
2022/01/02 02:55:04;;;;;;;;;;;6.80;87.40;;;;;;5022909;28;88568;-47
2022/01/02 02:57:32;;;;;;;;;;;6.80;87.40;;;;;;5023881;28;86126;-47
2022/01/02 02:59:57;;;;;;;;;;;6.80;87.40;;;;;;5023131;28;88282;-48
2022/01/02 03:02:23;;;;;;;;;;;6.80;87.40;;;;;;5025861;28;88204;-47
2022/01/02 03:04:48;;;;;;;;;;;6.80;87.40;;;;;;5022870;28;88037;-47
2022/01/02 03:07:14;;;;;;;;;;;6.80;87.40;;;;;;5022644;28;89700;-47
2022/01/02 03:09:46;;;;;;;;;;;6.80;87.40;;;;;;5022764;28;87194;-46
2022/01/02 03:12:11;;;;;;;;;;;6.80;87.40;;;;;;5023212;28;88961;-47
2022/01/02 03:14:37;;;;;;;;;;;6.80;87.50;;;;;;5022791;28;89849;-47
2022/01/02 03:17:03;;;;;;;;;;;6.80;87.50;;;;;;5024394;28;86991;-47
2022/01/02 03:19:29;;;;;;;;;;;6.80;87.50;;;;;;5026736;28;88800;-46
2022/01/02 03:21:56;;;;;;;;;;;6.80;87.50;;;;;;5029519;28;88953;-46
2022/01/02 03:24:21;;;;;;;;;;;6.80;87.50;;;;;;5026514;28;86955;-47
2022/01/02 03:26:47;;;;;;;;;;;6.80;87.40;;;;;;5025709;28;88516;-47
2022/01/02 03:29:12;;;;;;;;;;;6.80;87.40;;;;;;5026010;28;88176;-48
2022/01/02 03:31:38;;;;;;;;;;;6.80;87.40;;;;;;5026476;28;88183;-47
2022/01/02 03:34:03;;;;;;;;;;;6.80;87.40;;;;;;5025960;28;89332;-46
2022/01/02 03:36:29;;;;;;;;;;;6.80;87.50;;;;;;5026173;28;87207;-47
2022/01/02 03:38:54;;;;;;;;;;;6.80;87.40;;;;;;5026217;28;88263;-47
2022/01/02 03:41:20;;;;;;;;;;;6.80;87.40;;;;;;5025793;28;89491;-47
2022/01/02 03:43:45;;;;;;;;;;;6.80;87.40;;;;;;5028991;28;87058;-47
2022/01/02 03:46:11;;;;;;;;;;;6.80;87.50;;;;;;5026254;28;89180;-47
2022/01/02 03:48:37;;;;;;;;;;;6.80;87.50;;;;;;5026016;28;87130;-48
2022/01/02 03:51:02;;;;;;;;;;;6.80;87.50;;;;;;5025890;28;88902;-47
2022/01/02 03:53:28;;;;;;;;;;;6.80;87.60;;;;;;5025047;28;90015;-47
2022/01/02 03:55:53;;;;;;;;;;;6.80;87.50;;;;;;5025912;28;87067;-47
2022/01/02 03:58:19;;;;;;;;;;;6.80;87.50;;;;;;5026002;28;87868;-47
2022/01/02 04:00:44;;;;;;;;;;;6.80;87.50;;;;;;5025669;28;88675;-47
2022/01/02 04:03:10;;;;;;;;;;;6.80;87.50;;;;;;5025660;28;87268;-47
2022/01/02 04:05:36;;;;;;;;;;;6.80;87.60;;;;;;5028593;28;87824;-47
2022/01/02 04:08:01;;;;;;;;;;;6.80;87.60;;;;;;5025850;28;87131;-47
2022/01/02 04:10:27;;;;;;;;;;;6.80;87.60;;;;;;5025902;28;88654;-46
2022/01/02 04:12:52;;;;;;;;;;;6.80;87.60;;;;;;5025311;28;89215;-46
2022/01/02 04:15:18;;;;;;;;;;;6.80;87.60;;;;;;5025810;28;87103;-47
2022/01/02 04:17:43;;;;;;;;;;;6.80;87.60;;;;;;5024905;28;89079;-50
2022/01/02 04:20:11;;;;;;;;;;;6.80;87.60;;;;;;5025147;28;89478;-47
2022/01/02 04:22:37;;;;;;;;;;;6.80;87.60;;;;;;5025713;28;87075;-47
2022/01/02 04:25:03;;;;;;;;;;;6.80;87.60;;;;;;5025263;28;89431;-47
2022/01/02 04:27:29;;;;;;;;;;;6.80;87.50;;;;;;5027619;28;89519;-47
2022/01/02 04:29:54;;;;;;;;;;;6.80;87.50;;;;;;5024742;28;88835;-47
2022/01/02 04:32:20;;;;;;;;;;;6.80;87.50;;;;;;5025038;28;89252;-49
2022/01/02 04:34:46;;;;;;;;;;;6.80;87.50;;;;;;5025755;28;86416;-47
2022/01/02 04:37:11;;;;;;;;;;;6.80;87.50;;;;;;5025360;28;88638;-48
2022/01/02 04:39:38;;;;;;;;;;;6.80;87.40;;;;;;5024825;28;89393;-49
2022/01/02 04:42:04;;;;;;;;;;;6.80;87.40;;;;;;5024739;28;88111;-47
2022/01/02 04:44:29;;;;;;;;;;;6.80;87.40;;;;;;5025063;28;90346;-47
2022/01/02 04:46:55;;;;;;;;;;;6.80;87.30;;;;;;5024635;28;89580;-47
2022/01/02 04:49:20;;;;;;;;;;;6.80;87.30;;;;;;5028004;28;87167;-47
2022/01/02 04:51:46;;;;;;;;;;;6.80;87.30;;;;;;5024578;28;89865;-49
2022/01/02 04:54:11;;;;;;;;;;;6.80;87.30;;;;;;5024924;28;87196;-47
2022/01/02 04:56:37;;;;;;;;;;;6.80;87.20;;;;;;5025036;28;88998;-50
2022/01/02 04:59:02;;;;;;;;;;;6.80;87.20;;;;;;5025547;28;88893;-48
2022/01/02 05:01:28;;;;;;;;;;;6.80;87.20;;;;;;5024938;28;87047;-47
2022/01/02 05:03:53;;;;;;;;;;;6.80;87.20;;;;;;5025179;28;87820;-47
2022/01/02 05:06:19;;;;;;;;;;;6.80;87.20;;;;;;5023731;28;90734;-47
2022/01/02 05:08:45;;;;;;;;;;;6.80;87.20;;;;;;5024820;28;87133;-47
2022/01/02 05:11:11;;;;;;;;;;;6.80;87.20;;;;;;5027400;28;87321;-47
2022/01/02 05:13:39;;;;;;;;;;;6.80;87.20;;;;;;5024678;28;87140;-48
2022/01/02 05:16:05;;;;;;;;;;;6.80;87.20;;;;;;5023423;28;89371;-47
2022/01/02 05:18:30;;;;;;;;;;;6.80;87.20;;;;;;5024366;28;89358;-46
2022/01/02 05:20:56;;;;;;;;;;;6.80;87.20;;;;;;5024534;28;86960;-47
2022/01/02 05:23:22;;;;;;;;;;;6.80;87.20;;;;;;5025022;28;88848;-48
2022/01/02 05:25:47;;;;;;;;;;;6.80;87.20;;;;;;5023762;28;89565;-47
2022/01/02 05:28:13;;;;;;;;;;;6.80;87.20;;;;;;5024475;28;87002;-47
2022/01/02 05:30:39;;;;;;;;;;;6.80;87.20;;;;;;5026458;28;88334;-48
2022/01/02 05:33:05;;;;;;;;;;;6.80;87.20;;;;;;5024463;28;87030;-47
2022/01/02 05:35:31;;;;;;;;;;;6.80;87.20;;;;;;5024709;28;87140;-48
2022/01/02 05:37:57;;;;;;;;;;;6.80;87.20;;;;;;5023914;28;89406;-48
2022/01/02 05:40:24;;;;;;;;;;;6.80;87.20;;;;;;5024002;28;87232;-52
2022/01/02 05:42:49;;;;;;;;;;;6.80;87.20;;;;;;5024308;28;88224;-46
2022/01/02 05:45:15;;;;;;;;;;;6.80;87.20;;;;;;5023800;28;89550;-47
2022/01/02 05:47:40;;;;;;;;;;;6.80;87.20;;;;;;5024829;28;86344;-47
2022/01/02 05:50:07;;;;;;;;;;;6.80;87.20;;;;;;5024542;28;87051;-47
2022/01/02 05:52:32;;;;;;;;;;;6.80;87.10;;;;;;5026886;28;88531;-47
2022/01/02 05:54:58;;;;;;;;;;;6.80;87.10;;;;;;5023380;28;88836;-47
2022/01/02 05:57:24;;;;;;;;;;;6.80;87.10;;;;;;5023861;28;88788;-47
2022/01/02 05:59:49;;;;;;;;;;;6.80;87.10;;;;;;5024048;28;87066;-47
2022/01/02 06:02:15;;;;;;;;;;;6.80;87.70;;;;;;5024028;28;87714;-47
2022/01/02 06:04:40;;;;;;;;;;;6.80;87.10;;;;;;5023568;28;88727;-47
2022/01/02 06:07:06;;;;;;;;;;;6.80;87.10;;;;;;5023857;28;87243;-48
2022/01/02 06:09:32;;;;;;;;;;;6.80;87.20;;;;;;5023621;28;89149;-47
2022/01/02 06:11:57;;;;;;;;;;;6.80;87.20;;;;;;5024060;28;88760;-47
2022/01/02 06:14:23;;;;;;;;;;;6.80;87.10;;;;;;5026845;28;87336;-47
2022/01/02 06:16:48;;;;;;;;;;;6.80;87.10;;;;;;5023310;28;89737;-47
2022/01/02 06:19:14;;;;;;;;;;;6.80;87.10;;;;;;5023196;28;87863;-47
2022/01/02 06:21:39;;;;;;;;;;;6.80;87.10;;;;;;5023714;28;88917;-47
2022/01/02 06:24:05;;;;;;;;;;;6.80;87.10;;;;;;5023313;28;88719;-47
2022/01/02 06:26:30;;;;;;;;;;;6.80;87.10;;;;;;5023503;28;87076;-47
2022/01/02 06:28:56;;;;;;;;;;;6.80;87.10;;;;;;5023723;28;88201;-47
2022/01/02 06:31:22;;;;;;;;;;;6.80;87.20;;;;;;5023183;28;89402;-47
2022/01/02 06:33:47;;;;;;;;;;;6.80;87.10;;;;;;5023618;28;87138;-47
2022/01/02 06:36:13;;;;;;;;;;;6.80;87.10;;;;;;5026633;28;88941;-47
2022/01/02 06:38:38;;;;;;;;;;;6.80;87.10;;;;;;5023371;28;87118;-47
2022/01/02 06:41:04;;;;;;;;;;;6.80;87.20;;;;;;5023522;28;88658;-47
2022/01/02 06:43:32;;;;;;;;;;;6.80;87.10;;;;;;5022347;28;90192;-49
2022/01/02 06:45:57;;;;;;;;;;;6.80;87.10;;;;;;5023645;28;87139;-46
2022/01/02 06:48:23;;;;;;;;;;;6.80;87.10;;;;;;5023314;28;89470;-47
2022/01/02 06:50:48;;;;;;;;;;;6.80;87.10;;;;;;5022624;28;89431;-47
2022/01/02 06:53:14;;;;;;;;;;;6.80;87.10;;;;;;5022953;28;87196;-47
2022/01/02 06:55:39;;;;;;;;;;;6.80;87.10;;;;;;5023345;28;89523;-47
2022/01/02 06:58:06;;;;;;;;;;;6.80;87.20;;;;;;5025788;28;89689;-47
2022/01/02 07:00:32;;;;;;;;;;;6.80;87.20;;;;;;5023837;28;88785;-47
2022/01/02 07:02:58;;;;;;;;;;;6.80;87.20;;;;;;5022981;28;89574;-46
2022/01/02 07:05:23;;;;;;;;;;;6.80;87.20;;;;;;5023157;28;87125;-47
2022/01/02 07:07:49;;;;;;;;;;;6.80;87.20;;;;;;5022559;28;88923;-47
2022/01/02 07:10:16;;;;;;;;;;;6.80;87.30;;;;;;5022361;28;89481;-47
2022/01/02 07:12:41;;;;;;;;;;;6.80;87.20;;;;;;5023015;28;87101;-47
2022/01/02 07:15:07;;;;;;;;;;;6.80;87.30;;;;;;5022993;28;89165;-47
2022/01/02 07:17:33;;;;;;;;;;;6.80;87.30;;;;;;5022681;28;90145;-47
2022/01/02 07:19:59;;;;;;;;;;;6.80;87.40;;;;;;5025829;28;86867;-47
2022/01/02 07:22:24;;;;;;;;;;;6.80;87.40;;;;;;5022515;28;89573;-47
2022/01/02 07:24:51;;;;;;;;;;;6.80;87.40;;;;;;5023423;28;86138;-47
2022/01/02 07:27:20;;;;;;;;;;;6.80;87.40;;;;;;5022572;28;88352;-46
2022/01/02 07:29:49;;;;;;;;;;;6.80;87.50;;;;;;5022750;28;89441;-47
2022/01/02 07:32:15;;;;;;;;;;;6.80;87.50;;;;;;5021994;28;87882;-47
2022/01/02 07:34:40;;;;;;;;;;;6.80;87.70;;;;;;5022890;28;89913;-47
2022/01/02 07:37:06;;;;;;;;;;;6.80;87.70;;;;;;5022508;28;88616;-47
2022/01/02 07:39:31;;;;;;;;;;;6.80;87.80;;;;;;5025444;28;87167;-47
2022/01/02 07:41:57;;;;;;;;;;;6.80;87.90;;;;;;5022403;28;88380;-47
2022/01/02 07:44:22;;;;;;;;;;;6.90;88.10;;;;;;5022912;28;87289;-47
2022/01/02 07:46:48;;;;;;;;;;;6.80;88.00;;;;;;5022627;28;89063;-47
2022/01/02 07:49:13;;;;;;;;;;;6.90;88.30;;;;;;5022726;28;89040;-46
2022/01/02 07:51:39;;;;;;;;;;;6.80;88.30;;;;;;5022702;28;86972;-47
2022/01/02 07:54:04;;;;;;;;;;;6.80;88.50;;;;;;5022122;28;88812;-50
2022/01/02 07:56:30;;;;;;;;;;;6.90;88.60;;;;;;5021417;28;90895;-47
2022/01/02 07:58:58;;;;;;;;;;;6.90;88.60;;;;;;5022457;28;87097;-47
2022/01/02 08:01:23;;;;;;;;;;;6.90;88.60;;;;;;5024914;28;88751;-46
2022/01/02 08:03:49;;;;;;;;;;;6.90;88.80;;;;;;5023639;28;87026;-47
2022/01/02 08:06:14;;;;;;;;;;;6.90;88.90;;;;;;5026034;28;87030;-47
2022/01/02 08:08:40;;;;;;;;;;;6.90;89.20;;;;;;5025291;28;89399;-47
2022/01/02 08:11:06;;;;;;;;;;;6.90;89.00;;;;;;5025954;28;86897;-47
2022/01/02 08:13:31;;;;;;;;;;;6.90;89.00;;;;;;5026235;28;88462;-48
2022/01/02 08:15:57;;;;;;;;;;;6.90;89.00;;;;;;5025343;28;89643;-47
2022/01/02 08:18:22;;;;;;;;;;;6.90;88.90;;;;;;5025924;28;87195;-47
2022/01/02 08:20:48;;;;;;;;;;;6.90;88.80;;;;;;5024994;28;88831;-48
2022/01/02 08:23:14;;;;;;;;;;;6.90;88.80;;;;;;5027992;28;89242;-47
2022/01/02 08:25:39;;;;;;;;;;;6.90;88.80;;;;;;5025618;28;88006;-47
2022/01/02 08:28:05;;;;;;;;;;;6.90;89.00;;;;;;5025101;28;89692;-47
2022/01/02 08:30:31;;;;;;;;;;;6.90;89.20;;;;;;5025471;28;87115;-47
2022/01/02 08:32:56;;;;;;;;;;;6.90;88.90;;;;;;5025754;28;86842;-47
2022/01/02 08:35:22;;;;;;;;;;;6.90;89.10;;;;;;5025301;28;87244;-47
2022/01/02 08:37:47;;;;;;;;;;;6.90;89.20;;;;;;5025821;28;86416;-48
2022/01/02 08:40:13;;;;;;;;;;;6.90;89.20;;;;;;5025352;28;87436;-47
2022/01/02 08:42:39;;;;;;;;;;;6.90;89.10;;;;;;5024889;28;89406;-46
2022/01/02 08:45:04;;;;;;;;;;;6.90;89.10;;;;;;5027506;28;88058;-47
2022/01/02 08:47:30;;;;;;;;;;;6.90;89.00;;;;;;5024776;28;89943;-48
2022/01/02 08:49:56;;;;;;;;;;;6.90;89.10;;;;;;5025092;28;87012;-47
2022/01/02 08:52:22;;;;;;;;;;;6.90;89.20;;;;;;5025084;28;88879;-46
2022/01/02 08:54:47;;;;;;;;;;;6.90;89.20;;;;;;5024601;28;89492;-46
2022/01/02 08:57:13;;;;;;;;;;;6.90;89.20;;;;;;5024919;28;87133;-47
2022/01/02 08:59:39;;;;;;;;;;;6.90;89.20;;;;;;5025001;28;88895;-47
2022/01/02 09:02:04;;;;;;;;;;;7.00;89.50;;;;;;5025210;28;88917;-47
2022/01/02 09:04:30;;;;;;;;;;;7.00;89.20;;;;;;5024853;28;87174;-47
2022/01/02 09:06:55;;;;;;;;;;;6.90;89.10;;;;;;5027506;28;89079;-48
2022/01/02 09:09:21;;;;;;;;;;;6.90;89.30;;;;;;5024063;28;88118;-46
2022/01/02 09:11:47;;;;;;;;;;;6.90;89.20;;;;;;5024813;28;89725;-47
2022/01/02 09:14:12;;;;;;;;;;;7.00;89.30;;;;;;5023998;28;90056;-48
2022/01/02 09:16:39;;;;;;;;;;;6.90;89.20;;;;;;5024862;28;86888;-47
2022/01/02 09:19:05;;;;;;;;;;;6.90;89.20;;;;;;5024968;28;89391;-47
2022/01/02 09:21:31;;;;;;;;;;;6.90;89.10;;;;;;5024375;28;89683;-47
2022/01/02 09:23:56;;;;;;;;;;;6.90;89.20;;;;;;5024361;28;87106;-46
2022/01/02 09:26:22;;;;;;;;;;;6.90;89.20;;;;;;5027044;28;89463;-47
2022/01/02 09:28:47;;;;;;;;;;;7.00;89.50;;;;;;5024467;28;86981;-48
2022/01/02 09:31:13;;;;;;;;;;;7.00;89.30;;;;;;5024419;28;89095;-47
2022/01/02 09:33:38;;;;;;;;;;;7.00;89.40;;;;;;5023452;28;90654;-46
2022/01/02 09:36:04;;;;;;;;;;;7.00;89.40;;;;;;5024563;28;87146;-47
2022/01/02 09:38:30;;;;;;;;;;;7.00;89.30;;;;;;5024366;28;88916;-47
2022/01/02 09:40:55;;;;;;;;;;;7.00;89.40;;;;;;5024111;28;88211;-47
2022/01/02 09:43:21;;;;;;;;;;;7.00;89.40;;;;;;5024519;28;87131;-47
2022/01/02 09:45:47;;;;;;;;;;;7.00;89.30;;;;;;5024247;28;87895;-47
2022/01/02 09:48:13;;;;;;;;;;;7.00;89.50;;;;;;5026944;28;88829;-47
2022/01/02 09:50:39;;;;;;;;;;;7.00;89.40;;;;;;5024640;28;88832;-47
2022/01/02 09:53:05;;;;;;;;;;;7.00;89.60;;;;;;5023865;28;89331;-47
2022/01/02 09:55:30;;;;;;;;;;;7.00;89.50;;;;;;5024062;28;86999;-49
2022/01/02 09:57:59;;;;;;;;;;;7.00;89.70;;;;;;5022354;28;89326;-47
2022/01/02 10:00:25;;;;;;;;;;;7.00;89.60;;;;;;5023950;28;89548;-47
2022/01/02 10:03:03;;;;;;;;;;;7.10;89.60;;;;;;5023957;28;86899;-47
2022/01/02 10:05:47;;;;;;;;;;;7.00;89.50;;;;;;5024286;28;87319;-47
2022/01/02 10:08:19;;;;;;;;;;;7.00;89.60;;;;;;5024021;28;87217;-47
2022/01/02 10:10:45;;;;;;;;;;;7.10;89.70;;;;;;5026666;28;86835;-47
2022/01/02 10:13:10;;;;;;;;;;;7.10;89.60;;;;;;5023386;28;88851;-48
2022/01/02 10:15:36;;;;;;;;;;;7.10;89.60;;;;;;5024475;28;86269;-47
2022/01/02 10:18:06;;;;;;;;;;;7.10;89.70;;;;;;5023717;28;87201;-48
2022/01/02 10:20:38;;;;;;;;;;;7.10;89.60;;;;;;5023246;28;89449;-47
2022/01/02 10:23:06;;;;;;;;;;;7.10;89.70;;;;;;5023080;28;88067;-47
2022/01/02 10:25:35;;;;;;;;;;;7.10;89.70;;;;;;5023199;28;88169;-47
2022/01/02 10:28:17;;;;;;;;;;;7.10;89.70;;;;;;5022993;28;89141;-47
2022/01/02 10:30:46;;;;;;;;;;;7.10;89.70;;;;;;5023691;28;87092;-47
2022/01/02 10:33:12;;;;;;;;;;;7.10;89.60;;;;;;5026110;28;88831;-47
2022/01/02 10:35:37;;;;;;;;;;;7.10;89.40;;;;;;5023434;28;87288;-47
2022/01/02 10:38:04;;;;;;;;;;;7.20;89.50;;;;;;5023489;28;88883;-47
2022/01/02 10:40:33;;;;;;;;;;;7.20;89.40;;;;;;5023561;28;88876;-47
2022/01/02 10:42:59;;;;;;;;;;;7.20;89.70;;;;;;5023441;28;86910;-47
2022/01/02 10:45:34;;;;;;;;;;;7.20;89.50;;;;;;5023365;28;88508;-46
2022/01/02 10:47:59;;;;;;;;;;;7.20;89.50;;;;;;5022500;28;88943;-47
2022/01/02 10:50:25;;;;;;;;;;;7.20;89.80;;;;;;5023392;28;87200;-47
2022/01/02 10:52:51;;;;;;;;;;;7.20;89.70;;;;;;5023633;28;87212;-47
2022/01/02 10:55:23;;;;;;;;;;;7.20;89.70;;;;;;5025813;28;89828;-50
2022/01/02 10:57:50;;;;;;;;;;;7.30;89.60;;;;;;5023200;28;89379;-48
2022/01/02 11:00:19;;;;;;;;;;;7.20;89.80;;;;;;5022835;28;89624;-49
2022/01/02 11:02:45;;;;;;;;;;;7.30;89.80;;;;;;5023165;28;87146;-47
2022/01/02 11:05:12;;;;;;;;;;;7.30;89.80;;;;;;5023770;28;88822;-49
2022/01/02 11:07:38;;;;;;;;;;;7.30;89.80;;;;;;5022761;28;89573;-48
2022/01/02 11:10:04;;;;;;;;;;;7.30;89.70;;;;;;5023144;28;87099;-47
2022/01/02 11:12:31;;;;;;;;;;;7.20;89.70;;;;;;5022271;28;88937;-47
2022/01/02 11:14:58;;;;;;;;;;;7.30;89.90;;;;;;5022729;28;89730;-47
2022/01/02 11:17:23;;;;;;;;;;;7.30;90.00;;;;;;5026005;28;86953;-47
2022/01/02 11:19:49;;;;;;;;;;;7.30;90.00;;;;;;5022590;28;89291;-48
2022/01/02 11:22:23;;;;;;;;;;;7.30;90.00;;;;;;5022777;28;87120;-47
2022/01/02 11:25:00;;;;;;;;;;;7.30;90.00;;;;;;5022880;28;88828;-47
2022/01/02 11:27:33;;;;;;;;;;;7.30;89.90;;;;;;5022256;28;89738;-46
2022/01/02 11:30:19;;;;;;;;;;;7.30;89.90;;;;;;5023516;28;86224;-48
2022/01/02 11:32:58;;;;;;;;;;;7.30;90.00;;;;;;5022985;27;86867;-47
2022/01/02 11:35:26;;;;;;;;;;;7.30;90.00;;;;;;5022800;28;88102;-48
2022/01/02 11:37:52;;;;;;;;;;;7.30;90.00;;;;;;5025870;28;88067;-47
2022/01/02 11:40:37;;;;;;;;;;;7.30;90.00;;;;;;5026255;28;89807;-47
2022/01/02 11:43:02;;;;;;;;;;;7.30;90.00;;;;;;5026336;27;87098;-47
2022/01/02 11:45:29;;;;;;;;;;;7.40;90.00;;;;;;5026540;28;86976;-47
2022/01/02 11:47:55;;;;;;;;;;;7.30;90.00;;;;;;5025767;28;88590;-47
2022/01/02 11:50:26;;;;;;;;;;;7.40;90.10;;;;;;5025599;28;87175;-47
2022/01/02 11:53:09;;;;;;;;;;;7.40;90.00;;;;;;5025960;28;88829;-47
2022/01/02 11:55:35;;;;;;;;;;;7.30;90.00;;;;;;5026458;28;87249;-47
2022/01/02 11:58:01;;;;;;;;;;;7.40;90.10;;;;;;5025976;28;87034;-47
2022/01/02 12:00:31;;;;;;;;;;;7.40;90.10;;;;;;5028472;28;88482;-47
2022/01/02 12:02:57;;;;;;;;;;;7.40;90.10;;;;;;5024903;28;88104;-47
2022/01/02 12:05:22;;;;;;;;;;;7.40;90.00;;;;;;5025730;28;89978;-47
2022/01/02 12:07:55;;;;;;;;;;;7.40;90.10;;;;;;5025368;28;90116;-48
2022/01/02 12:10:26;;;;;;;;;;;7.40;90.10;;;;;;5026082;28;86940;-49
2022/01/02 12:13:10;;;;;;;;;;;7.40;90.10;;;;;;5025898;28;88971;-47
2022/01/02 12:15:38;;;;;;;;;;;7.40;90.10;;;;;;5025305;28;89322;-47
2022/01/02 12:18:07;;;;;;;;;;;7.40;90.10;;;;;;5025730;28;87010;-47
2022/01/02 12:20:57;;;;;;;;;;;7.40;90.10;;;;;;5026260;28;89020;-47
2022/01/02 12:23:43;;;;;;;;;;;7.40;90.20;;;;;;5028161;28;89329;-47
2022/01/02 12:26:15;;;;;;;;;;;7.40;90.10;;;;;;5024579;27;88861;-47
2022/01/02 12:28:46;;;;;;;;;;;7.40;90.20;;;;;;5024436;28;90349;-48
2022/01/02 12:31:16;;;;;;;;;;;7.40;90.20;;;;;;5025471;28;87082;-47
2022/01/02 12:33:41;;;;;;;;;;;7.50;90.20;;;;;;5025534;28;86928;-47
2022/01/02 12:36:13;;;;;;;;;;;7.40;90.20;;;;;;5024987;28;88750;-47
2022/01/02 12:38:46;;;;;;;;;;;7.50;90.20;;;;;;5025657;28;87021;-47
2022/01/02 12:41:12;;;;;;;;;;;7.40;90.20;;;;;;5025367;28;88977;-47
2022/01/02 12:43:38;;;;;;;;;;;7.40;90.30;;;;;;5025055;28;89614;-47
2022/01/02 12:46:03;;;;;;;;;;;7.50;90.30;;;;;;5028542;28;86305;-48
2022/01/02 12:48:33;;;;;;;;;;;7.50;90.20;;;;;;5024649;28;89380;-48
2022/01/02 12:51:11;;;;;;;;;;;7.50;90.30;;;;;;5024276;28;87261;-47
2022/01/02 12:53:37;;;;;;;;;;;7.50;90.30;;;;;;5024347;28;88750;-47
2022/01/02 12:56:02;;;;;;;;;;;7.50;90.30;;;;;;5024722;28;88590;-47
2022/01/02 12:58:30;;;;;;;;;;;7.50;90.30;;;;;;5025084;28;87152;-48
2022/01/02 13:01:02;;;;;;;;;;;7.50;90.30;;;;;;5025025;28;88593;-47
2022/01/02 13:03:27;;;;;;;;;;;7.50;90.40;;;;;;5024479;28;89489;-49
2022/01/02 13:05:53;;;;;;;;;;;7.60;90.40;;;;;;5025193;28;87035;-47
2022/01/02 13:08:22;;;;;;;;;;;7.50;90.30;;;;;;5027339;28;88862;-47
2022/01/02 13:10:48;;;;;;;;;;;7.50;90.40;;;;;;5025282;28;86271;-47
2022/01/02 13:13:25;;;;;;;;;;;7.60;90.40;;;;;;5024949;28;87029;-47
2022/01/02 13:15:51;;;;;;;;;;;7.60;90.40;;;;;;5023257;28;91685;-47
2022/01/02 13:18:16;;;;;;;;;;;7.60;90.40;;;;;;5023787;28;87852;-47
2022/01/02 13:20:43;;;;;;;;;;;7.60;90.40;;;;;;5024805;28;90189;-47
2022/01/02 13:23:09;;;;;;;;;;;7.60;90.40;;;;;;5024238;28;89326;-47
2022/01/02 13:25:37;;;;;;;;;;;7.60;90.40;;;;;;5024312;28;87051;-47
2022/01/02 13:28:08;;;;;;;;;;;7.60;90.40;;;;;;5024544;28;88749;-47
2022/01/02 13:30:38;;;;;;;;;;;7.60;90.40;;;;;;5027046;28;89602;-47
2022/01/02 13:33:23;;;;;;;;;;;7.60;90.40;;;;;;5024803;28;88929;-47
2022/01/02 13:35:50;;;;;;;;;;;7.60;90.40;;;;;;5024365;27;88490;-49
2022/01/02 13:38:17;;;;;;;;;;;7.60;90.40;;;;;;5024573;28;87198;-48
2022/01/02 13:40:43;;;;;;;;;;;7.60;90.40;;;;;;5024402;28;89187;-47
2022/01/02 13:43:09;;;;;;;;;;;7.60;90.40;;;;;;5023476;28;89029;-48
2022/01/02 13:45:39;;;;;;;;;;;7.60;90.40;;;;;;5024297;28;87060;-48
2022/01/02 13:48:08;;;;;;;;;;;7.70;90.40;;;;;;5024419;28;86834;-47
2022/01/02 13:50:44;;;;;;;;;;;7.70;90.40;;;;;;5026683;28;89223;-47
2022/01/02 13:53:17;;;;;;;;;;;7.70;90.50;;;;;;5024364;28;87937;-48
2022/01/02 13:55:45;;;;;;;;;;;7.70;90.50;;;;;;5023758;28;89439;-47
2022/01/02 13:58:19;;;;;;;;;;;7.70;90.50;;;;;;5024186;28;87192;-47
2022/01/02 14:00:54;;;;;;;;;;;7.70;90.50;;;;;;5024478;28;88691;-47
2022/01/02 14:03:39;;;;;;;;;;;7.70;90.50;;;;;;5023694;28;89960;-47
2022/01/02 14:06:05;;;;;;;;;;;7.70;90.50;;;;;;5024076;28;86920;-47
2022/01/02 14:08:30;;;;;;;;;;;7.70;90.50;;;;;;5023308;28;88888;-49
2022/01/02 14:11:07;;;;;;;;;;;7.70;90.50;;;;;;5023501;28;89558;-47
2022/01/02 14:19:32;;;;;;;;;;;7.80;90.60;;;;;;5021978;28;86747;-47
2022/01/02 14:21:58;;;;;;;;;;;7.80;90.60;;;;;;5023752;28;88120;-48
2022/01/02 14:24:23;;;;;;;;;;;7.80;90.60;;;;;;5023716;28;88070;-47
2022/01/02 14:26:49;;;;;;;;;;;7.80;90.60;;;;;;5023436;28;86609;-47
2022/01/02 14:29:16;;;;;;;;;;;7.80;90.60;;;;;;5023503;28;88112;-49
2022/01/02 14:31:42;;;;;;;;;;;7.80;90.60;;;;;;5023084;28;89194;-48
2022/01/02 14:34:08;;;;;;;;;;;7.80;90.60;;;;;;5023152;28;88084;-48
2022/01/02 14:36:34;;;;;;;;;;;7.80;90.60;;;;;;5026157;28;88722;-47
2022/01/02 14:38:59;;;;;;;;;;;7.90;90.60;;;;;;5023815;28;87123;-47
2022/01/02 14:41:25;;;;;;;;;;;7.90;90.60;;;;;;5023548;28;87513;-48